Time;durP1;ratioP1;P1;durP2;ratioP2;P2;SDS_P1;SDS_P2;PMS_P1;PMS_P2;Temp;Humidity;BMP_temperature;BMP_pressure;BME280_temperature;BME280_humidity;BME280_pressure;Samples;Min_cycle;Max_cycle;Signal;HPM_P1;HPM_P2
2022/01/15 00:00:10;;;;;;;20.23;17.67;;;-1.70;99.90;;;-0.97;92.56;99334.00;5189551;28;20223;-64
2022/01/15 00:02:44;;;;;;;17.83;16.03;;;-1.70;99.90;;;-1.01;92.96;99316.75;5174880;28;20242;-64
2022/01/15 00:05:18;;;;;;;16.03;14.43;;;-1.70;99.90;;;-1.01;92.49;99313.34;5190252;28;20216;-64
2022/01/15 00:07:51;;;;;;;15.50;13.80;;;-1.70;99.90;;;-1.02;92.59;99319.97;5179711;28;20231;-64
2022/01/15 00:10:27;;;;;;;15.10;13.50;;;-1.80;99.90;;;-1.01;93.47;99315.84;5191917;28;20219;-64
2022/01/15 00:13:02;;;;;;;13.53;12.27;;;-1.70;99.90;;;-1.02;92.35;99309.94;5185423;28;20231;-64
2022/01/15 00:15:40;;;;;;;13.73;12.43;;;-1.70;99.90;;;-1.00;92.47;99306.03;5189110;28;20252;-64
2022/01/15 00:18:15;;;;;;;15.07;13.40;;;-1.70;99.90;;;-0.99;92.96;99307.81;5192629;28;20236;-64
2022/01/15 00:20:49;;;;;;;14.50;13.10;;;-1.80;99.90;;;-1.03;92.59;99303.13;5186711;28;20272;-64
2022/01/15 00:23:22;;;;;;;16.00;14.30;;;-1.80;99.90;;;-1.08;93.28;99296.63;5186792;28;20243;-65
2022/01/15 00:25:55;;;;;;;15.13;13.73;;;-1.80;99.90;;;-1.13;92.83;99292.66;5175680;28;20568;-64
2022/01/15 00:28:28;;;;;;;14.10;12.73;;;-1.80;99.90;;;-1.08;92.83;99304.16;5185236;28;20218;-64
2022/01/15 00:31:01;;;;;;;14.93;13.40;;;-1.80;99.90;;;-1.08;93.77;99294.13;5175359;28;20682;-64
2022/01/15 00:33:35;;;;;;;14.83;13.33;;;-1.70;99.90;;;-1.14;93.91;99301.78;5181441;28;20242;-64
2022/01/15 00:36:09;;;;;;;13.63;12.23;;;-1.80;99.90;;;-1.09;92.53;99303.97;5172540;28;20581;-64
2022/01/15 00:38:42;;;;;;;14.87;13.37;;;-1.80;99.90;;;-1.11;93.64;99302.91;5181680;28;20602;-64
2022/01/15 00:41:17;;;;;;;13.93;12.63;;;-1.70;99.90;;;-1.08;92.97;99306.69;5179681;28;20219;-64
2022/01/15 00:43:50;;;;;;;13.73;12.17;;;-1.80;99.90;;;-1.10;93.90;99303.06;5172754;28;20214;-64
2022/01/15 00:46:23;;;;;;;13.87;12.50;;;-1.80;99.90;;;-1.14;94.05;99306.81;5185784;28;20223;-64
2022/01/15 00:48:56;;;;;;;15.50;13.97;;;-1.80;99.90;;;-1.20;93.16;99305.16;5187650;28;20237;-64
2022/01/15 00:51:31;;;;;;;15.83;14.30;;;-1.90;99.90;;;-1.21;92.93;99299.22;5185815;28;20219;-64
2022/01/15 00:54:04;;;;;;;16.60;14.87;;;-1.90;99.90;;;-1.24;94.08;99292.91;5181462;28;20232;-64
2022/01/15 00:56:38;;;;;;;17.80;16.00;;;-1.90;99.90;;;-1.27;93.80;99297.56;5182482;28;20226;-66
2022/01/15 00:59:10;;;;;;;17.73;15.87;;;-1.90;99.90;;;-1.22;93.23;99291.50;5181819;28;20221;-65
2022/01/15 01:01:44;;;;;;;19.13;17.23;;;-1.90;99.90;;;-1.14;92.88;99291.75;5185882;28;20231;-64
2022/01/15 01:04:17;;;;;;;17.97;16.03;;;-1.80;99.90;;;-1.15;93.26;99291.56;5180399;28;20231;-63
2022/01/15 01:06:51;;;;;;;18.30;16.47;;;-1.80;99.90;;;-1.18;93.14;99301.19;5169131;28;20222;-65
2022/01/15 01:09:31;;;;;;;18.93;17.03;;;-1.80;99.90;;;-1.16;93.19;99303.19;5172021;28;20223;-65
2022/01/15 01:12:21;;;;;;;19.30;17.40;;;-1.80;99.90;;;-1.17;93.72;99308.03;5178199;28;20596;-65
2022/01/15 01:20:53;;;;;;;24.70;20.10;;;-1.90;99.90;;;-1.20;92.65;99295.13;5159998;28;20215;-64
2022/01/15 01:23:27;;;;;;;24.00;21.17;;;-1.90;99.90;;;-1.26;93.50;99294.31;5170468;28;20232;-65
2022/01/15 01:26:07;;;;;;;24.10;21.50;;;-1.90;99.90;;;-1.24;94.66;99287.91;5184153;28;20233;-63
2022/01/15 01:28:44;;;;;;;22.40;20.00;;;-1.90;99.90;;;-1.13;93.02;99278.50;5166054;28;20595;-64
2022/01/15 01:31:22;;;;;;;23.30;20.83;;;-1.80;99.90;;;-1.16;93.80;99282.25;5182345;28;20219;-65
2022/01/15 01:34:04;;;;;;;26.03;21.30;;;-1.80;99.90;;;-1.14;94.67;99285.84;5179560;28;20222;-65
2022/01/15 01:36:46;;;;;;;23.27;20.87;;;-1.80;99.90;;;-1.18;93.45;99271.09;5185675;28;20249;-64
2022/01/15 01:39:23;;;;;;;23.00;20.60;;;-1.80;99.90;;;-1.16;94.61;99272.22;5176699;28;20223;-65
2022/01/15 01:42:09;;;;;;;25.43;20.30;;;-1.80;99.90;;;-1.16;94.89;99267.19;5179537;28;20233;-65
2022/01/15 01:45:02;;;;;;;22.73;20.23;;;-1.80;99.90;;;-1.10;93.26;99262.94;5177076;28;20235;-66
2022/01/15 01:47:40;;;;;;;24.10;20.53;;;-1.70;99.90;;;-1.12;94.72;99264.34;5169771;28;20218;-65
2022/01/15 01:50:16;;;;;;;22.67;19.47;;;-1.70;99.90;;;-1.10;93.59;99267.94;5176061;28;20244;-65
2022/01/15 01:52:52;;;;;;;20.93;18.67;;;-1.70;99.90;;;-1.10;94.95;99262.03;5185496;28;20236;-63
2022/01/15 01:55:28;;;;;;;19.60;17.43;;;-1.70;99.90;;;-1.14;94.54;99256.66;5178572;28;20550;-65
2022/01/15 01:58:01;;;;;;;20.23;18.07;;;-1.80;99.90;;;-1.13;93.94;99265.06;5173977;28;20226;-65
2022/01/15 02:00:34;;;;;;;20.50;17.87;;;-1.70;99.90;;;-1.10;93.81;99247.88;5175350;28;20225;-64
2022/01/15 02:03:08;;;;;;;19.13;17.13;;;-1.70;99.90;;;-1.09;94.42;99252.19;5184120;28;20304;-65
2022/01/15 02:05:41;;;;;;;18.47;16.60;;;-1.70;99.90;;;-1.06;93.58;99255.09;5172991;28;20223;-65
2022/01/15 02:08:16;;;;;;;19.23;17.30;;;-1.70;99.90;;;-1.06;94.73;99242.56;5175793;28;20222;-65
2022/01/15 02:10:51;;;;;;;20.00;16.33;;;-1.80;99.90;;;-1.08;94.66;99250.59;5173531;28;20219;-63
2022/01/15 02:13:24;;;;;;;19.00;16.80;;;-1.70;99.90;;;-1.10;94.54;99250.38;5175126;28;20229;-65
2022/01/15 02:15:58;;;;;;;17.10;15.30;;;-1.80;99.90;;;-1.13;93.64;99243.38;5178815;28;20805;-65
2022/01/15 02:18:31;;;;;;;19.07;15.87;;;-1.80;99.90;;;-1.05;93.67;99248.47;5176665;28;20226;-65
2022/01/15 02:24:00;;;;;;;18.10;16.27;;;-1.90;99.90;;;-1.15;93.27;99233.84;5177561;28;20222;-65
2022/01/15 02:26:37;;;;;;;18.07;16.13;;;-1.90;99.90;;;-1.13;93.48;99239.97;5182623;28;20219;-65
2022/01/15 02:29:12;;;;;;;16.33;14.50;;;-1.90;99.90;;;-1.23;93.74;99240.47;5165176;28;20286;-65
2022/01/15 02:31:45;;;;;;;17.80;16.03;;;-1.90;99.90;;;-1.24;93.00;99220.19;5182943;28;20225;-65
2022/01/15 02:34:18;;;;;;;17.53;15.73;;;-2.00;99.90;;;-1.14;92.24;99230.66;5169174;28;20251;-65
2022/01/15 02:36:52;;;;;;;17.27;15.60;;;-2.00;99.90;;;-1.15;92.48;99232.25;5172007;28;20237;-65
2022/01/15 02:39:25;;;;;;;15.93;14.33;;;-2.00;99.90;;;-1.15;92.11;99223.81;5181432;28;20218;-65
2022/01/15 02:42:00;;;;;;;17.23;15.43;;;-2.00;99.90;;;-1.28;91.92;99218.03;5170803;28;20227;-65
2022/01/15 02:44:37;;;;;;;16.90;15.20;;;-2.10;99.90;;;-1.33;92.42;99226.56;5174100;28;20230;-64
2022/01/15 02:50:14;;;;;;;17.77;15.97;;;-2.00;99.90;;;-1.37;92.31;99226.19;5125485;28;20716;-64
2022/01/15 02:52:48;;;;;;;18.87;17.07;;;-2.10;99.90;;;-1.42;92.95;99224.72;5157742;28;20223;-64
2022/01/15 02:55:21;;;;;;;18.70;15.23;;;-2.10;99.90;;;-1.37;92.39;99217.78;5182096;28;20233;-65
2022/01/15 02:57:54;;;;;;;17.73;15.90;;;-2.10;99.90;;;-1.42;92.29;99217.19;5176217;28;20222;-64
2022/01/15 03:00:28;;;;;;;18.30;16.47;;;-2.10;99.90;;;-1.44;91.60;99220.22;5176171;28;20225;-64
2022/01/15 03:03:02;;;;;;;18.93;17.03;;;-2.20;99.90;;;-1.40;92.05;99205.75;5176208;28;20745;-65
2022/01/15 03:05:35;;;;;;;17.77;15.97;;;-2.10;99.90;;;-1.36;92.95;99212.94;5172312;28;20221;-64
2022/01/15 03:08:09;;;;;;;16.37;14.77;;;-2.10;99.90;;;-1.35;91.25;99213.84;5176777;28;20219;-65
2022/01/15 03:10:43;;;;;;;17.83;16.13;;;-2.20;99.90;;;-1.41;92.18;99195.53;5169112;28;20758;-65
2022/01/15 03:13:16;;;;;;;17.47;15.87;;;-2.20;99.90;;;-1.43;91.42;99195.34;5179328;28;20229;-65
2022/01/15 03:15:49;;;;;;;17.57;15.73;;;-2.20;99.90;;;-1.46;91.25;99184.03;5176729;28;20880;-65
2022/01/15 03:18:22;;;;;;;18.00;16.10;;;-2.20;99.90;;;-1.57;91.54;99180.19;5179800;28;20249;-65
2022/01/15 03:20:55;;;;;;;18.80;16.90;;;-2.30;99.90;;;-1.60;92.30;99184.84;5178798;28;20227;-64
2022/01/15 03:23:30;;;;;;;16.77;15.07;;;-2.30;99.90;;;-1.50;91.37;99187.75;5171834;28;20265;-65
2022/01/15 03:26:03;;;;;;;16.43;14.77;;;-2.30;99.90;;;-1.51;91.01;99180.06;5176590;28;20223;-65
2022/01/15 03:28:36;;;;;;;14.60;13.27;;;-2.40;99.90;;;-1.52;90.55;99175.75;5172503;28;20589;-63
2022/01/15 03:31:10;;;;;;;14.73;13.30;;;-2.40;99.90;;;-1.41;90.41;99183.88;5180423;28;20224;-65
2022/01/15 03:33:43;;;;;;;14.43;13.03;;;-2.50;99.90;;;-1.53;89.33;99172.34;5168159;28;20233;-64
2022/01/15 03:36:16;;;;;;;13.97;12.60;;;-2.50;99.90;;;-1.59;90.63;99171.59;5182968;28;20623;-60
2022/01/15 03:38:51;;;;;;;15.40;13.90;;;-2.50;99.90;;;-1.72;89.92;99176.66;5175990;28;20244;-65
2022/01/15 03:41:24;;;;;;;14.87;13.37;;;-2.60;99.90;;;-1.88;91.24;99185.47;5169340;28;20233;-65
2022/01/15 03:43:57;;;;;;;14.93;13.33;;;-2.60;99.90;;;-1.83;90.88;99172.81;5177824;28;20242;-64
2022/01/15 03:46:30;;;;;;;15.37;13.73;;;-2.50;99.90;;;-1.76;90.59;99171.97;5176771;28;20318;-65
2022/01/15 03:49:03;;;;;;;15.33;13.73;;;-2.50;99.90;;;-1.76;91.93;99176.09;5176723;28;20227;-64
2022/01/15 03:51:37;;;;;;;15.60;14.00;;;-2.50;99.90;;;-1.74;91.54;99172.19;5178252;28;20234;-65
2022/01/15 03:54:11;;;;;;;16.57;14.87;;;-2.50;99.90;;;-1.74;90.40;99174.69;5176972;28;20845;-64
2022/01/15 03:56:44;;;;;;;18.90;13.80;;;-2.50;99.90;;;-2.09;90.63;99169.56;5168105;28;20225;-64
2022/01/15 03:59:19;;;;;;;15.87;14.03;;;-2.60;99.90;;;-2.00;90.91;99169.81;5168722;28;20230;-65
2022/01/15 04:01:52;;;;;;;16.50;14.80;;;-2.60;99.90;;;-1.92;91.33;99156.63;5177490;28;20245;-65
2022/01/15 04:04:25;;;;;;;16.57;15.03;;;-2.60;99.90;;;-1.97;91.25;99167.69;5169285;28;20654;-65
2022/01/15 04:06:58;;;;;;;16.37;14.67;;;-2.60;99.90;;;-1.92;91.93;99164.13;5186721;28;20253;-64
2022/01/15 04:09:33;;;;;;;16.70;15.10;;;-2.60;99.90;;;-1.94;91.30;99153.03;5175981;28;20233;-65
2022/01/15 04:12:07;;;;;;;17.43;15.60;;;-2.60;99.90;;;-1.88;91.15;99157.94;5180160;28;20235;-65
2022/01/15 04:14:40;;;;;;;18.33;16.53;;;-2.60;99.90;;;-1.90;92.00;99162.72;5170403;28;20218;-64
2022/01/15 04:17:13;;;;;;;17.17;15.37;;;-2.60;99.90;;;-1.88;92.88;99166.34;5177890;28;20238;-63
2022/01/15 04:19:46;;;;;;;17.90;16.10;;;-2.60;99.90;;;-1.88;92.55;99170.44;5185713;28;20636;-64
2022/01/15 04:22:19;;;;;;;17.07;15.13;;;-2.60;99.90;;;-1.89;91.85;99167.06;5171064;28;20225;-63
2022/01/15 04:24:54;;;;;;;17.77;15.93;;;-2.60;99.90;;;-1.44;92.17;99168.47;5180727;28;20589;-66
2022/01/15 04:27:27;;;;;;;17.83;15.10;;;-2.30;99.90;;;-1.21;90.37;99168.78;5179684;28;20752;-65
2022/01/15 04:30:03;;;;;;;16.53;14.63;;;-2.20;99.90;;;-1.17;89.21;99175.09;5177102;28;20308;-63
2022/01/15 04:32:36;;;;;;;17.73;15.87;;;-2.20;99.90;;;-1.21;88.23;99172.91;5182494;28;20226;-65
2022/01/15 04:35:10;;;;;;;17.37;15.47;;;-2.20;99.90;;;-1.27;89.19;99168.03;5178881;28;20217;-64
2022/01/15 04:37:46;;;;;;;17.40;15.70;;;-2.20;99.90;;;-1.29;89.52;99154.41;5177771;28;20317;-64
2022/01/15 04:40:21;;;;;;;15.50;14.00;;;-2.20;99.90;;;-1.32;88.73;99154.03;5178493;28;20214;-64
2022/01/15 04:42:54;;;;;;;16.03;14.53;;;-2.30;99.90;;;-1.41;88.67;99153.78;5178240;28;20674;-65
2022/01/15 04:45:27;;;;;;;15.63;14.03;;;-2.30;99.90;;;-1.54;89.90;99153.00;5177626;28;20685;-65
2022/01/15 04:48:00;;;;;;;15.97;14.33;;;-2.40;99.90;;;-1.65;90.34;99148.25;5179495;28;20215;-65
2022/01/15 04:50:33;;;;;;;14.87;13.37;;;-2.40;99.90;;;-1.67;90.85;99148.06;5169034;28;20226;-65
2022/01/15 04:53:08;;;;;;;15.27;13.77;;;-2.50;99.90;;;-1.70;89.67;99134.25;5184145;28;20595;-65
2022/01/15 04:55:43;;;;;;;15.00;13.53;;;-2.60;99.90;;;-1.71;89.18;99134.97;5185382;28;20218;-65
2022/01/15 04:58:16;;;;;;;14.93;13.37;;;-2.60;99.90;;;-1.73;89.73;99138.91;5186881;28;20630;-64
2022/01/15 05:00:49;;;;;;;15.43;13.83;;;-2.60;99.90;;;-1.76;90.71;99133.50;5184566;28;20306;-65
2022/01/15 05:03:22;;;;;;;14.60;13.13;;;-2.60;99.90;;;-1.79;90.56;99138.13;5173819;28;20222;-65
2022/01/15 05:05:55;;;;;;;16.40;14.20;;;-2.60;99.90;;;-1.90;90.87;99142.69;5181549;28;20664;-63
2022/01/15 05:08:28;;;;;;;16.03;14.53;;;-2.70;99.90;;;-1.94;91.33;99150.53;5186564;28;20221;-65
2022/01/15 05:11:12;;;;;;;15.53;14.00;;;-2.70;99.90;;;-2.02;90.45;99153.69;5182266;28;21387;-65
2022/01/15 05:13:45;;;;;;;15.17;13.67;;;-2.80;99.90;;;-2.06;89.98;99159.91;5182236;28;20719;-64
2022/01/15 05:16:18;;;;;;;15.27;13.43;;;-2.80;99.90;;;-2.05;91.49;99160.81;5181153;28;20218;-64
2022/01/15 05:18:51;;;;;;;17.87;15.97;;;-2.80;99.90;;;-2.07;90.05;99157.19;5180367;28;20703;-64
2022/01/15 05:21:24;;;;;;;18.50;16.27;;;-2.80;99.90;;;-2.07;91.11;99155.59;5173667;28;20218;-64
2022/01/15 05:23:57;;;;;;;17.73;15.97;;;-2.70;99.90;;;-2.03;91.14;99154.41;5183896;28;20226;-63
2022/01/15 05:26:32;;;;;;;20.63;15.13;;;-2.70;99.90;;;-1.99;91.76;99155.69;5180370;28;20218;-65
2022/01/15 05:29:05;;;;;;;18.30;16.50;;;-2.60;99.90;;;-1.97;91.55;99160.19;5182061;28;20228;-65
2022/01/15 05:31:38;;;;;;;18.40;16.53;;;-2.60;99.90;;;-1.93;91.31;99164.84;5173222;28;20222;-63
2022/01/15 05:34:11;;;;;;;19.73;17.33;;;-2.60;99.90;;;-1.98;92.78;99172.50;5175036;28;20226;-64
2022/01/15 05:36:45;;;;;;;18.23;16.33;;;-2.60;99.90;;;-1.98;92.79;99168.38;5177669;28;20219;-63
2022/01/15 05:39:18;;;;;;;17.43;15.63;;;-2.60;99.90;;;-1.92;92.59;99160.72;5164705;28;20230;-65
2022/01/15 05:41:53;;;;;;;21.13;18.30;;;-2.60;99.90;;;-1.87;92.85;99170.63;5172934;28;20229;-64
2022/01/15 05:44:26;;;;;;;19.50;16.90;;;-2.50;99.90;;;-1.89;91.97;99164.56;5181952;28;20218;-64
2022/01/15 05:46:59;;;;;;;18.57;16.17;;;-2.50;99.90;;;-1.89;92.13;99166.13;5181688;28;20226;-64
2022/01/15 05:49:32;;;;;;;20.77;17.50;;;-2.50;99.90;;;-1.82;93.47;99167.09;5180345;28;20220;-65
2022/01/15 05:52:06;;;;;;;20.40;17.13;;;-2.50;99.90;;;-1.84;93.15;99167.59;5176910;28;20338;-65
2022/01/15 05:54:39;;;;;;;18.83;16.67;;;-2.40;99.90;;;-1.90;92.61;99161.84;5180101;28;20218;-65
2022/01/15 05:57:14;;;;;;;20.30;16.83;;;-2.50;99.90;;;-1.88;93.61;99161.31;5178281;28;20218;-64
2022/01/15 05:59:51;;;;;;;18.20;16.23;;;-2.50;99.90;;;-1.90;93.69;99161.84;5170564;28;20241;-64
2022/01/15 06:02:24;;;;;;;18.07;16.17;;;-2.50;99.90;;;-1.90;92.53;99167.75;5180391;28;20234;-62
2022/01/15 06:04:57;;;;;;;18.80;16.80;;;-2.50;99.90;;;-1.84;92.21;99180.13;5184031;28;20232;-65
2022/01/15 06:07:30;;;;;;;18.27;16.00;;;-2.50;99.90;;;-1.86;92.82;99169.94;5173438;28;20226;-64
2022/01/15 06:10:04;;;;;;;19.37;16.40;;;-2.50;99.90;;;-1.85;93.42;99166.72;5182798;28;20221;-65
2022/01/15 06:12:43;;;;;;;18.47;16.50;;;-2.50;99.90;;;-1.82;92.65;99176.22;5168996;28;20215;-64
2022/01/15 06:15:17;;;;;;;21.63;17.57;;;-2.50;99.90;;;-1.87;92.54;99177.25;5166839;28;20222;-64
2022/01/15 06:17:50;;;;;;;21.07;18.13;;;-2.50;99.90;;;-1.91;93.69;99173.47;5170540;28;20222;-64
2022/01/15 06:20:23;;;;;;;18.90;17.00;;;-2.50;99.90;;;-1.85;93.16;99170.84;5171687;28;20235;-62
2022/01/15 06:22:56;;;;;;;19.67;17.20;;;-2.50;99.90;;;-1.88;92.41;99166.34;5168298;28;20224;-63
2022/01/15 06:25:29;;;;;;;28.80;22.80;;;-2.50;99.90;;;-1.90;92.04;99167.75;5179048;28;20219;-65
2022/01/15 06:28:04;;;;;;;28.23;22.03;;;-2.50;99.90;;;-1.89;93.36;99161.13;5167502;28;20233;-64
2022/01/15 06:30:38;;;;;;;21.53;19.20;;;-2.50;99.90;;;-1.87;91.93;99165.63;5166204;28;20220;-71
2022/01/15 06:33:11;;;;;;;20.37;17.80;;;-2.50;99.90;;;-1.89;91.84;99164.56;5182623;28;20229;-64
2022/01/15 06:35:44;;;;;;;20.63;18.50;;;-2.50;99.90;;;-1.89;91.90;99163.63;5175883;28;20226;-64
2022/01/15 06:38:17;;;;;;;18.03;16.10;;;-2.50;99.90;;;-1.91;91.53;99157.53;5171176;28;20227;-64
2022/01/15 06:40:50;;;;;;;19.17;17.00;;;-2.50;99.90;;;-1.92;92.16;99159.13;5176272;28;20215;-64
2022/01/15 06:43:24;;;;;;;19.23;17.10;;;-2.50;99.90;;;-1.89;92.11;99159.53;5169593;28;20704;-64
2022/01/15 06:45:57;;;;;;;17.80;16.00;;;-2.50;99.90;;;-1.84;92.05;99158.47;5182471;28;20218;-63
2022/01/15 06:48:30;;;;;;;18.03;15.53;;;-2.60;99.90;;;-1.84;92.22;99157.59;5182715;28;20219;-65
2022/01/15 06:51:04;;;;;;;17.93;16.03;;;-2.60;99.90;;;-1.87;91.23;99164.72;5182926;28;20240;-63
2022/01/15 06:53:37;;;;;;;17.67;15.87;;;-2.60;99.90;;;-1.92;90.63;99159.13;5182102;28;20233;-64
2022/01/15 06:56:10;;;;;;;21.40;19.17;;;-2.70;99.90;;;-1.92;90.33;99156.63;5179839;28;20224;-63
2022/01/15 06:58:45;;;;;;;19.37;17.37;;;-2.60;99.90;;;-1.99;91.11;99149.06;5179664;28;20234;-62
2022/01/15 07:01:19;;;;;;;18.93;17.13;;;-2.70;99.90;;;-1.97;91.49;99157.66;5178817;28;20761;-63
2022/01/15 07:03:52;;;;;;;20.20;18.10;;;-2.60;99.90;;;-1.93;90.62;99152.31;5181855;28;20237;-61
2022/01/15 07:06:25;;;;;;;21.87;19.47;;;-2.60;99.90;;;-2.02;92.81;99151.19;5171995;28;20226;-62
2022/01/15 07:08:58;;;;;;;20.10;17.87;;;-2.60;99.90;;;-2.03;92.84;99141.88;5181709;28;20250;-61
2022/01/15 07:11:31;;;;;;;21.70;17.77;;;-2.70;99.90;;;-1.95;92.70;99143.72;5174375;28;20729;-62
2022/01/15 07:14:05;;;;;;;23.87;19.67;;;-2.60;99.90;;;-1.95;92.39;99147.81;5183681;28;20585;-62
2022/01/15 07:16:38;;;;;;;22.03;18.60;;;-2.60;99.90;;;-2.03;91.48;99144.38;5182905;28;20579;-63
2022/01/15 07:19:11;;;;;;;20.73;17.97;;;-2.60;99.90;;;-1.99;91.95;99136.53;5175602;28;20587;-62
2022/01/15 07:21:44;;;;;;;21.83;18.73;;;-2.60;99.90;;;-1.92;91.43;99150.72;5180599;28;20575;-63
2022/01/15 07:24:17;;;;;;;19.80;17.70;;;-2.60;99.90;;;-1.88;92.10;99140.38;5181994;28;20225;-62
2022/01/15 07:26:50;;;;;;;21.00;18.77;;;-2.50;99.90;;;-1.85;91.92;99140.78;5183535;28;20599;-64
2022/01/15 07:29:25;;;;;;;20.60;18.50;;;-2.50;99.90;;;-1.83;92.63;99139.38;5174096;28;20219;-63
2022/01/15 07:31:58;;;;;;;21.40;18.50;;;-2.50;99.90;;;-1.76;91.80;99138.50;5182760;28;20228;-61
2022/01/15 07:34:31;;;;;;;21.10;17.73;;;-2.40;99.90;;;-1.71;91.85;99132.47;5173296;28;20683;-62
2022/01/15 07:37:05;;;;;;;19.97;17.87;;;-2.40;99.90;;;-1.71;93.18;99135.88;5179438;28;20226;-62
2022/01/15 07:39:38;;;;;;;20.37;18.27;;;-2.30;99.90;;;-1.70;92.14;99131.75;5184848;28;20229;-64
2022/01/15 07:42:11;;;;;;;19.20;17.20;;;-2.40;99.90;;;-1.67;91.73;99132.13;5187068;28;20218;-65
2022/01/15 07:44:45;;;;;;;20.63;18.33;;;-2.30;99.90;;;-1.63;93.15;99130.22;5182657;28;20230;-62
2022/01/15 07:47:18;;;;;;;21.93;18.73;;;-2.20;99.90;;;-1.59;92.58;99124.84;5186658;28;20218;-63
2022/01/15 07:49:51;;;;;;;20.37;18.27;;;-2.10;99.90;;;-1.39;92.53;99132.31;5187681;28;20226;-63
2022/01/15 07:52:24;;;;;;;21.70;18.67;;;-2.00;99.90;;;-1.22;93.06;99125.97;5186041;28;20229;-64
2022/01/15 07:55:00;;;;;;;20.13;17.93;;;-1.80;99.90;;;-1.01;93.38;99118.56;5184871;28;20226;-63
2022/01/15 07:57:43;;;;;;;19.83;17.73;;;-1.60;99.90;;;-0.85;92.42;99125.44;5183910;28;20296;-63
2022/01/15 08:00:19;;;;;;;20.27;17.90;;;-1.40;99.90;;;-0.70;92.33;99117.25;5185393;28;20233;-63
2022/01/15 08:02:54;;;;;;;23.00;18.63;;;-1.20;99.90;;;-0.58;89.89;99132.88;5185219;28;20235;-63
2022/01/15 08:05:27;;;;;;;22.20;18.27;;;-1.20;99.90;;;-0.55;89.84;99123.22;5185333;28;20284;-63
2022/01/15 08:08:00;;;;;;;20.37;17.83;;;-1.10;99.90;;;-0.31;89.47;99121.13;5186418;28;20845;-63
2022/01/15 08:10:33;;;;;;;21.07;18.20;;;-0.90;99.90;;;-0.15;89.61;99111.25;5185122;28;20229;-64
2022/01/15 08:13:06;;;;;;;24.63;19.07;;;-0.80;99.90;;;-0.15;87.67;99111.25;5183182;28;20208;-64
2022/01/15 08:15:41;;;;;;;22.23;19.17;;;-0.80;99.90;;;-0.04;88.22;99108.41;5183959;28;20219;-63
2022/01/15 08:18:14;;;;;;;24.13;19.83;;;-0.70;99.90;;;0.10;87.54;99107.50;5182060;28;20342;-63
2022/01/15 08:20:47;;;;;;;25.33;19.97;;;-0.60;99.90;;;0.09;87.26;99110.75;5185376;28;20286;-63
2022/01/15 08:23:20;;;;;;;25.17;20.83;;;-0.60;99.90;;;0.25;87.06;99108.41;5185053;28;20224;-63
2022/01/15 08:25:53;;;;;;;27.33;21.13;;;-0.40;99.90;;;0.42;86.53;99103.72;5184321;28;20225;-63
2022/01/15 08:28:27;;;;;;;21.83;18.43;;;-0.30;99.90;;;0.52;86.94;99099.78;5185058;28;20244;-63
2022/01/15 08:31:01;;;;;;;21.27;18.23;;;-0.10;99.90;;;0.60;86.56;99104.03;5184272;28;20225;-65
2022/01/15 08:33:35;;;;;;;20.07;18.00;;;0.00;99.90;;;0.63;85.79;99105.31;5185196;28;20295;-63
2022/01/15 08:36:08;;;;;;;20.83;18.77;;;0.00;99.90;;;0.69;84.51;99097.56;5184722;28;20223;-63
2022/01/15 08:38:41;;;;;;;20.83;18.80;;;-0.10;99.90;;;0.80;84.95;99104.75;5180623;28;20228;-63
2022/01/15 08:41:29;;;;;;;19.53;17.53;;;0.20;99.90;;;0.78;84.72;99103.66;5176778;28;20649;-64
2022/01/15 08:44:03;;;;;;;20.33;18.10;;;0.20;99.90;;;0.90;83.90;99097.50;5184489;28;20222;-63
2022/01/15 08:46:37;;;;;;;20.37;18.43;;;0.20;99.90;;;0.92;84.91;99099.28;5182632;28;21793;-64
2022/01/15 08:49:10;;;;;;;21.70;19.40;;;0.40;99.90;;;0.96;85.10;99087.22;5182855;28;20228;-63
2022/01/15 08:51:43;;;;;;;21.77;19.57;;;0.50;99.90;;;1.02;84.75;99092.06;5179972;28;20683;-64
2022/01/15 08:54:16;;;;;;;23.03;20.63;;;0.60;99.90;;;1.11;85.25;99095.63;5181656;28;20226;-63
2022/01/15 08:56:49;;;;;;;25.20;20.67;;;0.60;99.90;;;1.18;84.57;99090.56;5182532;28;20226;-64
2022/01/15 08:59:23;;;;;;;24.33;20.73;;;0.70;99.90;;;1.42;84.52;99089.00;5179610;28;20223;-64
2022/01/15 09:01:59;;;;;;;22.33;19.93;;;0.90;99.90;;;1.62;82.36;99079.53;5182857;28;20233;-64
2022/01/15 09:04:33;;;;;;;23.40;21.03;;;1.00;99.90;;;1.48;81.78;99077.09;5181136;28;20218;-64
2022/01/15 09:07:08;;;;;;;23.10;20.73;;;0.90;99.90;;;1.57;83.32;99083.16;5181499;28;20241;-63
2022/01/15 09:09:41;;;;;;;23.27;20.80;;;1.10;99.90;;;1.68;84.26;99071.75;5177626;28;20571;-63
2022/01/15 09:12:17;;;;;;;23.17;20.87;;;1.30;99.90;;;1.76;83.93;99074.38;5181229;28;20228;-62
2022/01/15 09:14:52;;;;;;;23.53;21.10;;;1.40;99.90;;;1.98;83.73;99079.28;5183623;28;20592;-62
2022/01/15 09:17:26;;;;;;;27.90;22.03;;;1.50;99.90;;;2.10;82.75;99073.03;5187049;28;20213;-62
2022/01/15 09:20:00;;;;;;;25.40;21.33;;;1.70;99.90;;;2.16;81.93;99075.34;5184088;28;20240;-62
2022/01/15 09:22:33;;;;;;;24.33;21.77;;;1.70;99.90;;;2.38;80.86;99068.47;5184004;28;20214;-62
2022/01/15 09:25:07;;;;;;;56.73;40.53;;;1.90;99.90;;;2.43;81.06;99069.84;5179989;28;20223;-64
2022/01/15 09:30:31;;;;;;;27.80;24.87;;;2.00;99.90;;;2.67;80.58;99069.09;5183158;28;20217;-63
2022/01/15 09:33:06;;;;;;;25.83;23.03;;;2.10;99.90;;;2.79;79.83;99060.28;5187992;28;20218;-63
2022/01/15 09:35:39;;;;;;;23.80;21.30;;;2.20;99.90;;;3.02;78.88;99062.72;5175469;28;20219;-63
2022/01/15 09:38:15;;;;;;;24.53;22.03;;;2.40;99.90;;;3.15;79.43;99058.22;5183280;28;20247;-63
2022/01/15 09:40:48;;;;;;;23.27;20.87;;;2.50;99.90;;;3.41;76.93;99062.56;5174350;28;20380;-63
2022/01/15 09:43:22;;;;;;;23.93;21.53;;;2.70;99.90;;;3.37;77.15;99058.81;5179743;28;20229;-63
2022/01/15 09:45:58;;;;;;;25.13;22.43;;;2.70;99.90;;;3.46;77.35;99061.41;5173763;28;20250;-63
2022/01/15 09:48:34;;;;;;;25.17;22.67;;;2.70;99.90;;;3.37;77.39;99062.97;5183034;28;20226;-63
2022/01/15 09:51:07;;;;;;;23.13;20.77;;;2.80;99.90;;;3.50;77.78;99055.94;5189180;28;20218;-63
2022/01/15 09:53:41;;;;;;;24.73;22.10;;;2.90;99.90;;;3.61;76.31;99057.94;5175426;28;20223;-63
2022/01/15 09:56:14;;;;;;;25.30;22.67;;;3.10;99.90;;;3.64;76.74;99062.44;5181867;28;20224;-63
2022/01/15 09:58:47;;;;;;;26.03;22.87;;;3.00;99.90;;;3.70;76.10;99064.69;5182554;28;20218;-63
2022/01/15 10:01:21;;;;;;;25.13;22.53;;;3.00;99.90;;;3.81;76.84;99056.59;5184356;28;20743;-63
2022/01/15 10:03:56;;;;;;;25.57;22.87;;;3.10;99.90;;;3.88;77.04;99053.91;5182954;28;20316;-62
2022/01/15 10:06:29;;;;;;;26.47;23.63;;;3.20;99.90;;;4.01;75.61;99053.56;5169102;28;20357;-63
2022/01/15 10:09:07;;;;;;;25.93;22.67;;;3.30;99.90;;;4.03;76.21;99054.59;5185671;28;20700;-63
2022/01/15 10:11:42;;;;;;;25.30;22.80;;;3.40;99.90;;;4.17;74.88;99058.50;5177273;28;20224;-63
2022/01/15 10:14:27;;;;;;;25.70;23.03;;;3.40;99.90;;;4.31;75.03;99052.31;5177105;28;20229;-64
2022/01/15 10:17:02;;;;;;;26.83;24.03;;;3.60;99.90;;;4.48;73.96;99047.31;5176414;28;20226;-64
2022/01/15 10:19:38;;;;;;;27.30;24.50;;;3.70;99.90;;;4.48;73.72;99044.78;5180511;28;20222;-63
2022/01/15 10:22:14;;;;;;;27.13;24.33;;;3.80;99.90;;;4.40;74.43;99045.63;5181639;28;20259;-64
2022/01/15 10:24:55;;;;;;;26.80;23.97;;;3.70;99.90;;;4.34;75.10;99037.44;5179510;28;20214;-64
2022/01/15 10:27:31;;;;;;;28.10;25.10;;;3.60;99.90;;;4.29;75.82;99037.88;5180165;28;20326;-63
2022/01/15 10:30:09;;;;;;;26.73;24.00;;;3.70;99.90;;;4.51;74.46;99037.47;5183062;28;20232;-63
2022/01/15 10:32:56;;;;;;;27.03;24.07;;;3.80;99.90;;;4.56;73.91;99037.94;5180090;28;20226;-64
2022/01/15 10:35:34;;;;;;;29.23;25.70;;;3.90;99.90;;;4.60;74.01;99027.38;5174898;28;20226;-63
2022/01/15 10:38:11;;;;;;;28.37;25.30;;;3.90;99.90;;;4.62;74.30;99015.75;5180222;28;20584;-64
2022/01/15 10:40:47;;;;;;;40.63;33.00;;;3.90;99.90;;;4.62;74.69;99010.69;5169278;28;20226;-64
2022/01/15 10:43:21;;;;;;;28.07;25.27;;;3.90;99.90;;;4.80;74.25;99017.56;5173869;28;20225;-63
2022/01/15 10:45:57;;;;;;;28.33;25.37;;;4.10;99.90;;;4.83;74.11;99012.78;5179309;28;20764;-64
2022/01/15 10:48:37;;;;;;;29.90;26.60;;;4.10;99.90;;;4.95;74.18;99002.94;5181190;28;20222;-64
2022/01/15 10:51:12;;;;;;;27.97;25.07;;;4.20;99.90;;;4.91;74.62;98999.22;5176927;28;20224;-64